Observation data for Morton on 04/23/2019      Previous  Date  Next       Current Mesonet Observations  Soil Data  Daily Summary Page  Observations in Plain Language
KMNS 230500Z 05010KT 12/10 A3007 RMK A01 T01220101  RH  090%=      5-min Rain = 0
KMNS 230505Z 05010KT 12/10 A3007 RMK A01 T01220101  RH  090%=      5-min Rain = 0
KMNS 230510Z 05010KT 12/10 A3007 RMK A01 T01220101  RH  089%=      5-min Rain = 0
KMNS 230515Z 06010KT 12/10 A3007 RMK A01 T01230101  RH  089%=      5-min Rain = 0
KMNS 230520Z 06012KT 12/10 A3008 RMK A01 T01230101  RH  089%=      5-min Rain = 0
KMNS 230525Z 06011KT 12/10 A3008 RMK A01 T01230101  RH  089%=      5-min Rain = 0
KMNS 230530Z 05012KT 12/10 A3007 RMK A01 T01230101  RH  089%=      5-min Rain = 0
KMNS 230535Z 06013KT 12/10 A3007 RMK A01 T01230101  RH  089%=      5-min Rain = 0
KMNS 230540Z 06013KT 12/10 A3007 RMK A01 T01230101  RH  089%=      5-min Rain = 0
KMNS 230545Z 05013KT 12/10 A3007 RMK A01 T01230102  RH  090%=      5-min Rain = 0
KMNS 230550Z 05012KT 12/10 A3007 RMK A01 T01210103  RH  091%=      5-min Rain = 0
KMNS 230555Z 05012KT 12/10 A3007 RMK A01 T01210104  RH  092%=      5-min Rain = 0
KMNS 230600Z 04013G18KT 12/11 A3007 RMK A01 T01200105  RH  093%=      5-min Rain = 0
KMNS 230605Z 05011KT 12/11 A3007 RMK A01 T01200105  RH  094%=      5-min Rain = 0
KMNS 230610Z 05011KT 12/11 A3007 RMK A01 T01200106  RH  094%=      5-min Rain = 0.04
KMNS 230615Z 04012KT 12/11 A3007 RMK A01 T01190106  RH  095%=      5-min Rain = 0.02
KMNS 230620Z 05010G15KT 12/11 A3007 RMK A01 T01200107  RH  095%=      5-min Rain = 0
KMNS 230625Z 05010KT 12/11 A3007 RMK A01 T01200108  RH  096%=      5-min Rain = 0
KMNS 230630Z 05008KT 12/11 A3008 RMK A01 T01200109  RH  096%=      5-min Rain = 0.01
KMNS 230635Z 05006KT 12/11 A3008 RMK A01 T01200110  RH  097%=      5-min Rain = 0
KMNS 230640Z 04006KT 12/11 A3008 RMK A01 T01200111  RH  097%=      5-min Rain = 0
KMNS 230645Z 05009KT 12/11 A3008 RMK A01 T01200111  RH  098%=      5-min Rain = 0
KMNS 230650Z 05009KT 12/11 A3008 RMK A01 T01190112  RH  099%=      5-min Rain = 0.01
KMNS 230655Z 05007KT 12/11 A3008 RMK A01 T01190113  RH  100%=      5-min Rain = 0.02
KMNS 230700Z 05007KT 12/11 A3008 RMK A01 T01180113  RH  100%=      5-min Rain = 0.03
KMNS 230705Z 03008KT 12/11 A3008 RMK A01 T01180113  RH  100%=      5-min Rain = 0.01
KMNS 230710Z 01008KT 12/11 A3008 RMK A01 T01180113  RH  100%=      5-min Rain = 0.02
KMNS 230715Z 02008KT 12/11 A3008 RMK A01 T01180112  RH  100%=      5-min Rain = 0.02
KMNS 230720Z 03008KT 12/11 A3008 RMK A01 T01180113  RH  100%=      5-min Rain = 0.02
KMNS 230725Z 05010KT 12/11 A3008 RMK A01 T01180112  RH  100%=      5-min Rain = 0.01
KMNS 230730Z 04008KT 12/11 A3008 RMK A01 T01170112  RH  100%=      5-min Rain = 0.01
KMNS 230735Z 35007KT 12/11 A3008 RMK A01 T01170112  RH  100%=      5-min Rain = 0.01
KMNS 230740Z 32008KT 12/11 A3009 RMK A01 T01170112  RH  100%=      5-min Rain = 0.02
KMNS 230745Z 35005KT 12/11 A3009 RMK A01 T01160111  RH  100%=      5-min Rain = 0.02
KMNS 230750Z 35009KT 12/11 A3009 RMK A01 T01150110  RH  100%=      5-min Rain = 0.04
KMNS 230755Z 00011KT 12/11 A3008 RMK A01 T01150110  RH  100%=      5-min Rain = 0.02
KMNS 230800Z 02011KT 12/11 A3007 RMK A01 T01150110  RH  100%=      5-min Rain = 0.02
KMNS 230805Z 04012KT 12/11 A3006 RMK A01 T01160111  RH  100%=      5-min Rain = 0.02
KMNS 230810Z 05011KT 12/11 A3006 RMK A01 T01160111  RH  100%=      5-min Rain = 0.02
KMNS 230815Z 01009KT 12/11 A3007 RMK A01 T01170111  RH  100%=      5-min Rain = 0
KMNS 230820Z 01010KT 12/11 A3007 RMK A01 T01160111  RH  100%=      5-min Rain = 0.02
KMNS 230825Z 01008KT 12/11 A3008 RMK A01 T01150109  RH  100%=      5-min Rain = 0.02
KMNS 230830Z 32006KT 11/11 A3008 RMK A01 T01140109  RH  100%=      5-min Rain = 0.03
KMNS 230835Z 29008KT 11/11 A3009 RMK A01 T01140109  RH  100%=      5-min Rain = 0.03
KMNS 230840Z 30009KT 11/11 A3009 RMK A01 T01140109  RH  100%=      5-min Rain = 0.03
KMNS 230845Z 33008KT 11/11 A3008 RMK A01 T01130108  RH  100%=      5-min Rain = 0.02
KMNS 230850Z 00012KT 11/11 A3006 RMK A01 T01130108  RH  100%=      5-min Rain = 0.01
KMNS 230855Z 02014KT 11/11 A3005 RMK A01 T01120107  RH  100%=      5-min Rain = 0.01
KMNS 230900Z 02013KT 11/11 A3005 RMK A01 T01120107  RH  100%=      5-min Rain = 0
KMNS 230905Z 02013KT 11/11 A3004 RMK A01 T01110106  RH  100%=      5-min Rain = 0
KMNS 230910Z 02013KT 11/11 A3004 RMK A01 T01110106  RH  100%=      5-min Rain = 0.01
KMNS 230915Z 01013KT 11/11 A3004 RMK A01 T01110106  RH  100%=      5-min Rain = 0
KMNS 230920Z 02014KT 11/11 A3003 RMK A01 T01100105  RH  100%=      5-min Rain = 0
KMNS 230925Z 02013KT 11/11 A3003 RMK A01 T01100105  RH  100%=      5-min Rain = 0
KMNS 230930Z 03012KT 11/11 A3003 RMK A01 T01100105  RH  100%=      5-min Rain = 0
KMNS 230935Z 01012KT 11/11 A3003 RMK A01 T01100105  RH  100%=      5-min Rain = 0
KMNS 230940Z 00013KT 11/11 A3003 RMK A01 T01100105  RH  100%=      5-min Rain = 0
KMNS 230945Z 36011KT 11/11 A3004 RMK A01 T01100105  RH  100%=      5-min Rain = 0
KMNS 230950Z 35010KT 11/11 A3005 RMK A01 T01100105  RH  100%=      5-min Rain = 0
KMNS 230955Z 36013KT 11/11 A3004 RMK A01 T01100105  RH  100%=      5-min Rain = 0
KMNS 231000Z 35015G20KT 11/11 A3004 RMK A01 T01100105  RH  100%=      5-min Rain = 0
KMNS 231005Z 36015KT 11/10 A3004 RMK A01 T01090104  RH  100%=      5-min Rain = 0
KMNS 231010Z 35015KT 11/10 A3004 RMK A01 T01090104  RH  100%=      5-min Rain = 0
KMNS 231015Z 35014G19KT 11/10 A3005 RMK A01 T01090104  RH  100%=      5-min Rain = 0
KMNS 231020Z 35013KT 11/11 A3005 RMK A01 T01100105  RH  100%=      5-min Rain = 0
KMNS 231025Z 35014KT 11/11 A3005 RMK A01 T01100105  RH  100%=      5-min Rain = 0
KMNS 231030Z 35015KT 11/11 A3005 RMK A01 T01110106  RH  100%=      5-min Rain = 0
KMNS 231035Z 34012KT 11/11 A3006 RMK A01 T01110106  RH  100%=      5-min Rain = 0
KMNS 231040Z 34010KT 11/11 A3007 RMK A01 T01110106  RH  100%=      5-min Rain = 0
KMNS 231045Z 34009KT 11/11 A3008 RMK A01 T01110106  RH  100%=      5-min Rain = 0
KMNS 231050Z 34009KT 11/11 A3008 RMK A01 T01110106  RH  100%=      5-min Rain = 0
KMNS 231055Z 33009KT 11/11 A3009 RMK A01 T01120107  RH  100%=      5-min Rain = 0
KMNS 231100Z 34007KT 11/11 A3009 RMK A01 T01110106  RH  100%=      5-min Rain = 0
KMNS 231105Z 34009KT 11/11 A3009 RMK A01 T01110106  RH  100%=      5-min Rain = 0
KMNS 231110Z 36014KT 11/11 A3006 RMK A01 T01110106  RH  100%=      5-min Rain = 0
KMNS 231115Z 36015KT 11/11 A3005 RMK A01 T01100105  RH  100%=      5-min Rain = 0
KMNS 231120Z 36012KT 11/10 A3006 RMK A01 T01100104  RH  100%=      5-min Rain = 0
KMNS 231125Z 01013KT 11/10 A3005 RMK A01 T01090104  RH  100%=      5-min Rain = 0
KMNS 231130Z 00014KT 11/10 A3005 RMK A01 T01090103  RH  099%=      5-min Rain = 0
KMNS 231135Z 36013KT 11/10 A3006 RMK A01 T01090103  RH  099%=      5-min Rain = 0
KMNS 231140Z 00013KT 11/10 A3006 RMK A01 T01090103  RH  099%=      5-min Rain = 0
KMNS 231145Z 36012KT 11/10 A3007 RMK A01 T01090103  RH  099%=      5-min Rain = 0
KMNS 231150Z 00012KT 11/10 A3007 RMK A01 T01090102  RH  099%=      5-min Rain = 0
KMNS 231155Z 01012KT 11/10 A3007 RMK A01 T01090102  RH  099%=      5-min Rain = 0
KMNS 231200Z 02012KT 11/10 A3006 RMK A01 T01090102  RH  099%=      5-min Rain = 0
KMNS 231205Z 02013KT 11/10 A3006 RMK A01 T01090101  RH  099%=      5-min Rain = 0
KMNS 231210Z 02014KT 11/10 A3005 RMK A01 T01080101  RH  099%=      5-min Rain = 0
KMNS 231215Z 03015KT 11/10 A3004 RMK A01 T01080101  RH  099%=      5-min Rain = 0
KMNS 231220Z 03015KT 11/10 A3004 RMK A01 T01080101  RH  099%=      5-min Rain = 0
KMNS 231225Z 04016KT 11/10 A3003 RMK A01 T01080100  RH  098%=      5-min Rain = 0
KMNS 231230Z 04014KT 11/10 A3003 RMK A01 T01080100  RH  098%=      5-min Rain = 0
KMNS 231235Z 04013KT 11/10 A3004 RMK A01 T01070099  RH  098%=      5-min Rain = 0
KMNS 231240Z 03010KT 11/10 A3005 RMK A01 T01070099  RH  098%=      5-min Rain = 0
KMNS 231245Z 03012KT 11/10 A3005 RMK A01 T01070099  RH  098%=      5-min Rain = 0
KMNS 231250Z 03012KT 11/10 A3005 RMK A01 T01090100  RH  097%=      5-min Rain = 0
KMNS 231255Z 03011KT 11/10 A3006 RMK A01 T01100100  RH  097%=      5-min Rain = 0
KMNS 231300Z 02011KT 11/10 A3007 RMK A01 T01110101  RH  097%=      5-min Rain = 0
KMNS 231305Z 01012KT 11/10 A3007 RMK A01 T01110101  RH  097%=      5-min Rain = 0
KMNS 231310Z 01011KT 11/10 A3008 RMK A01 T01110102  RH  097%=      5-min Rain = 0
KMNS 231315Z 01011KT 11/10 A3008 RMK A01 T01120102  RH  097%=      5-min Rain = 0
KMNS 231320Z 00012KT 11/10 A3008 RMK A01 T01120103  RH  097%=      5-min Rain = 0
KMNS 231325Z 00011KT 11/10 A3008 RMK A01 T01120103  RH  097%=      5-min Rain = 0
KMNS 231330Z 01011KT 11/10 A3008 RMK A01 T01130104  RH  097%=      5-min Rain = 0
KMNS 231335Z 01011KT 11/11 A3008 RMK A01 T01140105  RH  097%=      5-min Rain = 0
KMNS 231340Z 01011KT 11/11 A3009 RMK A01 T01140105  RH  097%=      5-min Rain = 0
KMNS 231345Z 02012KT 12/11 A3009 RMK A01 T01150106  RH  097%=      5-min Rain = 0
KMNS 231350Z 02012KT 12/11 A3009 RMK A01 T01170107  RH  097%=      5-min Rain = 0
KMNS 231355Z 02012KT 12/11 A3008 RMK A01 T01190108  RH  096%=      5-min Rain = 0
KMNS 231400Z 03014KT 12/11 A3008 RMK A01 T01220110  RH  095%=      5-min Rain = 0
KMNS 231405Z 02014KT 13/11 A3008 RMK A01 T01250111  RH  094%=      5-min Rain = 0
KMNS 231410Z 02013G18KT 13/11 A3009 RMK A01 T01270112  RH  094%=      5-min Rain = 0
KMNS 231415Z 02015KT 12/11 A3008 RMK A01 T01220107  RH  093%=      5-min Rain = 0
KMNS 231420Z 03015KT 12/11 A3008 RMK A01 T01220106  RH  093%=      5-min Rain = 0
KMNS 231425Z 03015KT 12/11 A3008 RMK A01 T01220106  RH  093%=      5-min Rain = 0
KMNS 231430Z 03013KT 12/11 A3009 RMK A01 T01230107  RH  093%=      5-min Rain = 0
KMNS 231435Z 03014KT 12/11 A3009 RMK A01 T01220106  RH  093%=      5-min Rain = 0
KMNS 231440Z 03014KT 12/11 A301 RMK A01 T01230106  RH  093%=      5-min Rain = 0
KMNS 231445Z 03014KT 12/11 A301 RMK A01 T01230106  RH  092%=      5-min Rain = 0
KMNS 231450Z 02012G17KT 12/11 A301 RMK A01 T01240106  RH  092%=      5-min Rain = 0
KMNS 231455Z 03013KT 12/11 A301 RMK A01 T01230105  RH  092%=      5-min Rain = 0
KMNS 231500Z 03014KT 12/11 A301 RMK A01 T01230105  RH  092%=      5-min Rain = 0
KMNS 231505Z 04015KT 12/11 A301 RMK A01 T01230105  RH  091%=      5-min Rain = 0
KMNS 231510Z 04014KT 13/11 A3009 RMK A01 T01250106  RH  091%=      5-min Rain = 0
KMNS 231515Z 05015KT 13/11 A3009 RMK A01 T01250107  RH  092%=      5-min Rain = 0
KMNS 231520Z 05015KT 13/11 A3008 RMK A01 T01250107  RH  092%=      5-min Rain = 0
KMNS 231525Z 05015KT 13/11 A3007 RMK A01 T01270109  RH  092%=      5-min Rain = 0
KMNS 231530Z 05016KT 13/11 A3007 RMK A01 T01270110  RH  092%=      5-min Rain = 0
KMNS 231535Z 05015G21KT 13/11 A3007 RMK A01 T01280110  RH  092%=      5-min Rain = 0
KMNS 231540Z 05018KT 13/11 A3007 RMK A01 T01270109  RH  092%=      5-min Rain = 0
KMNS 231545Z 04017G22KT 13/11 A3007 RMK A01 T01270109  RH  092%=      5-min Rain = 0
KMNS 231550Z 04016KT 13/11 A3008 RMK A01 T01300112  RH  092%=      5-min Rain = 0
KMNS 231555Z 04014G20KT 13/11 A3008 RMK A01 T01310113  RH  092%=      5-min Rain = 0
KMNS 231600Z 03013G18KT 13/11 A3009 RMK A01 T01310112  RH  092%=      5-min Rain = 0
KMNS 231605Z 03013KT 13/11 A3009 RMK A01 T01310112  RH  091%=      5-min Rain = 0
KMNS 231610Z 03014KT 13/11 A3009 RMK A01 T01300110  RH  090%=      5-min Rain = 0
KMNS 231615Z 04013KT 13/11 A3009 RMK A01 T01310110  RH  090%=      5-min Rain = 0
KMNS 231620Z 04013KT 13/11 A301 RMK A01 T01310109  RH  090%=      5-min Rain = 0
KMNS 231625Z 03014KT 13/11 A3011 RMK A01 T01300108  RH  089%=      5-min Rain = 0
KMNS 231630Z 03012KT 13/11 A3011 RMK A01 T01300108  RH  090%=      5-min Rain = 0
KMNS 231635Z 03011KT 13/11 A3012 RMK A01 T01300108  RH  090%=      5-min Rain = 0
KMNS 231640Z 03012KT 13/11 A3011 RMK A01 T01300108  RH  090%=      5-min Rain = 0
KMNS 231645Z 03012KT 13/11 A3011 RMK A01 T01290108  RH  090%=      5-min Rain = 0
KMNS 231650Z 03013KT 13/11 A301 RMK A01 T01290109  RH  091%=      5-min Rain = 0
KMNS 231655Z 03014KT 13/11 A301 RMK A01 T01280110  RH  091%=      5-min Rain = 0
KMNS 231700Z 03014G19KT 13/11 A301 RMK A01 T01280110  RH  092%=      5-min Rain = 0
KMNS 231705Z 03014KT 13/11 A301 RMK A01 T01270110  RH  092%=      5-min Rain = 0
KMNS 231710Z 03013KT 13/11 A301 RMK A01 T01270111  RH  093%=      5-min Rain = 0
KMNS 231715Z 04013KT 13/11 A301 RMK A01 T01280112  RH  094%=      5-min Rain = 0
KMNS 231720Z 03015KT 13/11 A301 RMK A01 T01260110  RH  093%=      5-min Rain = 0
KMNS 231725Z 03014KT 13/11 A301 RMK A01 T01270111  RH  093%=      5-min Rain = 0
KMNS 231730Z 03015KT 13/11 A301 RMK A01 T01270111  RH  093%=      5-min Rain = 0
KMNS 231735Z 02013KT 13/11 A301 RMK A01 T01260111  RH  094%=      5-min Rain = 0
KMNS 231740Z 02015KT 13/11 A301 RMK A01 T01250111  RH  094%=      5-min Rain = 0
KMNS 231745Z 03013KT 13/11 A301 RMK A01 T01260112  RH  095%=      5-min Rain = 0
KMNS 231750Z 03013KT 13/11 A301 RMK A01 T01270113  RH  095%=      5-min Rain = 0
KMNS 231755Z 02014KT 13/11 A3009 RMK A01 T01280114  RH  094%=      5-min Rain = 0
KMNS 231800Z 03013KT 13/11 A3009 RMK A01 T01290113  RH  094%=      5-min Rain = 0
KMNS 231805Z 03013KT 13/11 A3009 RMK A01 T01310114  RH  093%=      5-min Rain = 0
KMNS 231810Z 03013KT 13/11 A3009 RMK A01 T01310113  RH  092%=      5-min Rain = 0
KMNS 231815Z 02014KT 13/11 A3009 RMK A01 T01290111  RH  092%=      5-min Rain = 0
KMNS 231820Z 02014KT 13/11 A3009 RMK A01 T01270111  RH  093%=      5-min Rain = 0
KMNS 231825Z 03012KT 13/11 A3009 RMK A01 T01280111  RH  093%=      5-min Rain = 0
KMNS 231830Z 04012KT 13/11 A3009 RMK A01 T01310113  RH  092%=      5-min Rain = 0
KMNS 231835Z 04012KT 13/11 A3009 RMK A01 T01330113  RH  091%=      5-min Rain = 0
KMNS 231840Z 03012KT 13/11 A3009 RMK A01 T01340113  RH  090%=      5-min Rain = 0
KMNS 231845Z 04011KT 13/11 A3009 RMK A01 T01340113  RH  090%=      5-min Rain = 0
KMNS 231850Z 04012KT 14/11 A3009 RMK A01 T01350114  RH  090%=      5-min Rain = 0
KMNS 231855Z 05012KT 13/11 A3009 RMK A01 T01340112  RH  089%=      5-min Rain = 0
KMNS 231900Z 04012KT 13/11 A3009 RMK A01 T01330110  RH  089%=      5-min Rain = 0
KMNS 231905Z 04011KT 13/11 A3009 RMK A01 T01330111  RH  089%=      5-min Rain = 0
KMNS 231910Z 04011KT 14/11 A3009 RMK A01 T01350110  RH  088%=      5-min Rain = 0
KMNS 231915Z 05010KT 14/11 A3009 RMK A01 T01380111  RH  087%=      5-min Rain = 0
KMNS 231920Z 04011KT 14/11 A3008 RMK A01 T01390113  RH  087%=      5-min Rain = 0
KMNS 231925Z 03011KT 14/11 A3008 RMK A01 T01360112  RH  088%=      5-min Rain = 0
KMNS 231930Z 04012KT 13/11 A3008 RMK A01 T01340112  RH  090%=      5-min Rain = 0
KMNS 231935Z 05011KT 13/11 A3008 RMK A01 T01320114  RH  092%=      5-min Rain = 0
KMNS 231940Z 05011KT 13/12 A3008 RMK A01 T01320115  RH  093%=      5-min Rain = 0
KMNS 231945Z 03012KT 13/11 A3008 RMK A01 T01300113  RH  093%=      5-min Rain = 0
KMNS 231950Z 03012KT 13/11 A3008 RMK A01 T01300113  RH  093%=      5-min Rain = 0
KMNS 231955Z 03011KT 13/11 A3008 RMK A01 T01320114  RH  092%=      5-min Rain = 0
KMNS 232000Z 04010KT 13/11 A3008 RMK A01 T01330114  RH  091%=      5-min Rain = 0
KMNS 232005Z 04010KT 13/11 A3008 RMK A01 T01340112  RH  090%=      5-min Rain = 0
KMNS 232010Z 03013KT 13/11 A3008 RMK A01 T01330110  RH  089%=      5-min Rain = 0
KMNS 232015Z 03011KT 13/11 A3008 RMK A01 T01340112  RH  089%=      5-min Rain = 0
KMNS 232020Z 03012KT 14/11 A3008 RMK A01 T01350111  RH  088%=      5-min Rain = 0
KMNS 232025Z 03013KT 14/11 A3007 RMK A01 T01360111  RH  088%=      5-min Rain = 0
KMNS 232030Z 03013KT 13/11 A3007 RMK A01 T01340110  RH  089%=      5-min Rain = 0
KMNS 232035Z 04013KT 13/11 A3007 RMK A01 T01330110  RH  089%=      5-min Rain = 0
KMNS 232040Z 04012KT 13/11 A3007 RMK A01 T01340111  RH  089%=      5-min Rain = 0
KMNS 232045Z 03013KT 14/11 A3007 RMK A01 T01350111  RH  088%=      5-min Rain = 0
KMNS 232050Z 04012KT 13/11 A3007 RMK A01 T01340111  RH  089%=      5-min Rain = 0
KMNS 232055Z 03014KT 13/11 A3007 RMK A01 T01310108  RH  089%=      5-min Rain = 0
KMNS 232100Z 03013KT 13/11 A3007 RMK A01 T01300108  RH  090%=      5-min Rain = 0
KMNS 232105Z 03013KT 13/11 A3007 RMK A01 T01290107  RH  090%=      5-min Rain = 0
KMNS 232110Z 03014KT 13/11 A3006 RMK A01 T01280107  RH  090%=      5-min Rain = 0
KMNS 232115Z 03013KT 13/11 A3006 RMK A01 T01270106  RH  090%=      5-min Rain = 0
KMNS 232120Z 03012KT 13/11 A3006 RMK A01 T01290108  RH  090%=      5-min Rain = 0
KMNS 232125Z 04012KT 13/11 A3006 RMK A01 T01310108  RH  089%=      5-min Rain = 0
KMNS 232130Z 03013KT 13/11 A3006 RMK A01 T01310106  RH  088%=      5-min Rain = 0
KMNS 232135Z 03013KT 13/11 A3006 RMK A01 T01290106  RH  089%=      5-min Rain = 0
KMNS 232140Z 04012KT 13/11 A3006 RMK A01 T01290106  RH  088%=      5-min Rain = 0
KMNS 232145Z 03012KT 13/11 A3006 RMK A01 T01310107  RH  088%=      5-min Rain = 0
KMNS 232150Z 04012KT 13/11 A3006 RMK A01 T01310107  RH  088%=      5-min Rain = 0
KMNS 232155Z 04013KT 13/10 A3006 RMK A01 T01290104  RH  088%=      5-min Rain = 0
KMNS 232200Z 03012KT 13/11 A3005 RMK A01 T01310105  RH  087%=      5-min Rain = 0
KMNS 232205Z 04011KT 13/11 A3006 RMK A01 T01320106  RH  087%=      5-min Rain = 0
KMNS 232210Z 02013KT 13/10 A3006 RMK A01 T01300104  RH  087%=      5-min Rain = 0
KMNS 232215Z 03013KT 13/10 A3006 RMK A01 T01270103  RH  088%=      5-min Rain = 0
KMNS 232220Z 03012KT 13/10 A3006 RMK A01 T01270103  RH  088%=      5-min Rain = 0
KMNS 232225Z 04010KT 13/10 A3006 RMK A01 T01290104  RH  087%=      5-min Rain = 0
KMNS 232230Z 03011KT 13/10 A3006 RMK A01 T01320103  RH  086%=      5-min Rain = 0
KMNS 232235Z 03012KT 13/10 A3006 RMK A01 T01330104  RH  085%=      5-min Rain = 0
KMNS 232240Z 02011KT 13/10 A3006 RMK A01 T01320103  RH  085%=      5-min Rain = 0
KMNS 232245Z 03010KT 13/11 A3005 RMK A01 T01340105  RH  085%=      5-min Rain = 0
KMNS 232250Z 02011KT 13/10 A3006 RMK A01 T01330102  RH  084%=      5-min Rain = 0
KMNS 232255Z 03010KT 13/10 A3005 RMK A01 T01330102  RH  084%=      5-min Rain = 0
KMNS 232300Z 03011KT 13/10 A3005 RMK A01 T01320100  RH  084%=      5-min Rain = 0
KMNS 232305Z 03011KT 13/10 A3005 RMK A01 T01320099  RH  083%=      5-min Rain = 0
KMNS 232310Z 04011KT 13/10 A3005 RMK A01 T01340100  RH  083%=      5-min Rain = 0
KMNS 232315Z 03010KT 13/10 A3005 RMK A01 T01340102  RH  084%=      5-min Rain = 0
KMNS 232320Z 02011KT 13/10 A3005 RMK A01 T01330099  RH  083%=      5-min Rain = 0
KMNS 232325Z 02011KT 13/10 A3005 RMK A01 T01340099  RH  082%=      5-min Rain = 0
KMNS 232330Z 02012KT 13/10 A3005 RMK A01 T01330099  RH  083%=      5-min Rain = 0
KMNS 232335Z 02013KT 13/10 A3005 RMK A01 T01310099  RH  083%=      5-min Rain = 0
KMNS 232340Z 02012KT 13/10 A3005 RMK A01 T01310098  RH  083%=      5-min Rain = 0
KMNS 232345Z 02012KT 13/10 A3005 RMK A01 T01310098  RH  083%=      5-min Rain = 0
KMNS 232350Z 02013KT 13/10 A3005 RMK A01 T01330099  RH  083%=      5-min Rain = 0
KMNS 232355Z 02014KT 13/10 A3004 RMK A01 T01330099  RH  083%=      5-min Rain = 0
KMNS 240000Z 01014KT 13/10 A3004 RMK A01 T01320098  RH  082%=      5-min Rain = 0
KMNS 240005Z 02013KT 13/10 A3004 RMK A01 T01310097  RH  083%=      5-min Rain = 0
KMNS 240010Z 01013KT 13/10 A3004 RMK A01 T01300096  RH  083%=      5-min Rain = 0
KMNS 240015Z 01013KT 13/10 A3004 RMK A01 T01300097  RH  083%=      5-min Rain = 0
KMNS 240020Z 02014KT 13/10 A3004 RMK A01 T01290096  RH  083%=      5-min Rain = 0
KMNS 240025Z 02013KT 13/10 A3004 RMK A01 T01280096  RH  083%=      5-min Rain = 0
KMNS 240030Z 02012KT 13/10 A3004 RMK A01 T01270095  RH  083%=      5-min Rain = 0
KMNS 240035Z 01013KT 13/10 A3004 RMK A01 T01270095  RH  083%=      5-min Rain = 0
KMNS 240040Z 01012KT 13/10 A3004 RMK A01 T01270095  RH  083%=      5-min Rain = 0
KMNS 240045Z 02011KT 13/10 A3004 RMK A01 T01270096  RH  084%=      5-min Rain = 0
KMNS 240050Z 02011KT 13/10 A3004 RMK A01 T01270096  RH  084%=      5-min Rain = 0
KMNS 240055Z 02011KT 13/10 A3004 RMK A01 T01270095  RH  084%=      5-min Rain = 0
KMNS 240100Z 02011KT 13/09 A3004 RMK A01 T01250094  RH  084%=      5-min Rain = 0
KMNS 240105Z 03010KT 13/09 A3005 RMK A01 T01250093  RH  084%=      5-min Rain = 0
KMNS 240110Z 03011KT 12/09 A3005 RMK A01 T01240092  RH  084%=      5-min Rain = 0
KMNS 240115Z 02010KT 12/09 A3005 RMK A01 T01230092  RH  084%=      5-min Rain = 0
KMNS 240120Z 02009KT 12/09 A3005 RMK A01 T01230094  RH  085%=      5-min Rain = 0
KMNS 240125Z 02009KT 12/10 A3005 RMK A01 T01220095  RH  086%=      5-min Rain = 0
KMNS 240130Z 02010KT 12/10 A3004 RMK A01 T01220095  RH  086%=      5-min Rain = 0
KMNS 240135Z 02010KT 12/10 A3004 RMK A01 T01220095  RH  086%=      5-min Rain = 0
KMNS 240140Z 02009KT 12/10 A3003 RMK A01 T01210096  RH  087%=      5-min Rain = 0
KMNS 240145Z 02009KT 12/10 A3003 RMK A01 T01210096  RH  087%=      5-min Rain = 0
KMNS 240150Z 02008KT 12/10 A3003 RMK A01 T01210097  RH  088%=      5-min Rain = 0
KMNS 240155Z 02007KT 12/10 A3003 RMK A01 T01210097  RH  088%=      5-min Rain = 0
KMNS 240200Z 03008KT 12/10 A3003 RMK A01 T01200096  RH  088%=      5-min Rain = 0
KMNS 240205Z 03008KT 12/10 A3003 RMK A01 T01200096  RH  088%=      5-min Rain = 0
KMNS 240210Z 03007KT 12/10 A3004 RMK A01 T01200095  RH  088%=      5-min Rain = 0
KMNS 240215Z 03007KT 12/10 A3004 RMK A01 T01190095  RH  088%=      5-min Rain = 0
KMNS 240220Z 03006KT 12/10 A3005 RMK A01 T01190095  RH  088%=      5-min Rain = 0
KMNS 240225Z 03006KT 12/10 A3005 RMK A01 T01180095  RH  088%=      5-min Rain = 0
KMNS 240230Z 03005KT 12/10 A3005 RMK A01 T01180096  RH  089%=      5-min Rain = 0
KMNS 240235Z 04004KT 12/10 A3006 RMK A01 T01190096  RH  089%=      5-min Rain = 0
KMNS 240240Z 03005KT 12/10 A3006 RMK A01 T01190097  RH  089%=      5-min Rain = 0
KMNS 240245Z 04005KT 12/10 A3006 RMK A01 T01180095  RH  089%=      5-min Rain = 0
KMNS 240250Z 06005KT 12/09 A3007 RMK A01 T01160093  RH  088%=      5-min Rain = 0
KMNS 240255Z 05005KT 12/09 A3007 RMK A01 T01150092  RH  088%=      5-min Rain = 0
KMNS 240300Z 03006KT 11/09 A3006 RMK A01 T01130090  RH  089%=      5-min Rain = 0
KMNS 240305Z 03006KT 11/09 A3006 RMK A01 T01110089  RH  089%=      5-min Rain = 0
KMNS 240310Z 05005KT 11/09 A3007 RMK A01 T01090089  RH  090%=      5-min Rain = 0
KMNS 240315Z 06005KT 11/09 A3008 RMK A01 T01080088  RH  090%=      5-min Rain = 0
KMNS 240320Z 06004KT 11/09 A3008 RMK A01 T01070088  RH  091%=      5-min Rain = 0
KMNS 240325Z 04004KT 11/09 A3007 RMK A01 T01050087  RH  091%=      5-min Rain = 0
KMNS 240330Z 03004KT 10/09 A3007 RMK A01 T01040086  RH  092%=      5-min Rain = 0
KMNS 240335Z 03004KT 10/09 A3007 RMK A01 T01010085  RH  092%=      5-min Rain = 0
KMNS 240340Z 03004KT 10/08 A3007 RMK A01 T01000084  RH  093%=      5-min Rain = 0
KMNS 240345Z 03004KT 10/08 A3006 RMK A01 T00980084  RH  093%=      5-min Rain = 0
KMNS 240350Z 03004KT 10/08 A3006 RMK A01 T00970084  RH  094%=      5-min Rain = 0
KMNS 240355Z 03004KT 10/08 A3006 RMK A01 T00970084  RH  094%=      5-min Rain = 0
KMNS 240400Z 03004KT 10/08 A3006 RMK A01 T00960084  RH  095%=      5-min Rain = 0
KMNS 240405Z 04004KT 10/09 A3005 RMK A01 T00960085  RH  095%=      5-min Rain = 0
KMNS 240410Z 06004KT 10/09 A3006 RMK A01 T00980087  RH  096%=      5-min Rain = 0
KMNS 240415Z 06004KT 10/09 A3006 RMK A01 T00990088  RH  096%=      5-min Rain = 0
KMNS 240420Z 05005KT 10/09 A3006 RMK A01 T00990088  RH  096%=      5-min Rain = 0
KMNS 240425Z 05005KT 10/09 A3006 RMK A01 T00990088  RH  096%=      5-min Rain = 0
KMNS 240430Z 06005KT 10/09 A3006 RMK A01 T00990088  RH  096%=      5-min Rain = 0
KMNS 240435Z 06005KT 10/09 A3006 RMK A01 T00980087  RH  096%=      5-min Rain = 0
KMNS 240440Z 06005KT 10/09 A3006 RMK A01 T00980087  RH  096%=      5-min Rain = 0
KMNS 240445Z 05006KT 10/09 A3006 RMK A01 T00970087  RH  096%=      5-min Rain = 0
KMNS 240450Z 06005KT 10/09 A3006 RMK A01 T00970086  RH  096%=      5-min Rain = 0
KMNS 240455Z 06005KT 10/09 A3006 RMK A01 T00970086  RH  096%=      5-min Rain = 0

Page generated in 0.0107 seconds.